sensor_id;sensor_type;location;lat;lon;timestamp;temperature;humidity
21772;DHT22;11047;47.904;8.110;2023-06-14T00:01:02;9.90;99.90
21772;DHT22;11047;47.904;8.110;2023-06-14T00:03:31;10.00;99.90
21772;DHT22;11047;47.904;8.110;2023-06-14T00:05:58;9.90;99.90
21772;DHT22;11047;47.904;8.110;2023-06-14T00:08:25;10.20;99.90
21772;DHT22;11047;47.904;8.110;2023-06-14T00:10:54;9.60;99.90
21772;DHT22;11047;47.904;8.110;2023-06-14T00:13:20;9.70;99.90
21772;DHT22;11047;47.904;8.110;2023-06-14T00:15:47;9.80;99.90
21772;DHT22;11047;47.904;8.110;2023-06-14T00:18:14;9.90;99.90
21772;DHT22;11047;47.904;8.110;2023-06-14T00:20:42;9.90;99.90
21772;DHT22;11047;47.904;8.110;2023-06-14T00:23:09;9.70;99.90
21772;DHT22;11047;47.904;8.110;2023-06-14T00:25:36;9.50;99.90
21772;DHT22;11047;47.904;8.110;2023-06-14T00:28:04;9.50;99.90
21772;DHT22;11047;47.904;8.110;2023-06-14T00:30:31;9.40;99.90
21772;DHT22;11047;47.904;8.110;2023-06-14T00:32:58;9.30;99.90
21772;DHT22;11047;47.904;8.110;2023-06-14T00:35:25;9.30;99.90
21772;DHT22;11047;47.904;8.110;2023-06-14T00:37:52;9.30;99.90
21772;DHT22;11047;47.904;8.110;2023-06-14T00:40:20;9.10;99.90
21772;DHT22;11047;47.904;8.110;2023-06-14T00:42:47;9.10;99.90
21772;DHT22;11047;47.904;8.110;2023-06-14T00:45:15;9.20;99.90
21772;DHT22;11047;47.904;8.110;2023-06-14T00:47:43;9.00;99.90
21772;DHT22;11047;47.904;8.110;2023-06-14T00:50:12;8.90;99.90
21772;DHT22;11047;47.904;8.110;2023-06-14T00:52:39;9.10;99.90
21772;DHT22;11047;47.904;8.110;2023-06-14T00:55:07;9.00;99.90
21772;DHT22;11047;47.904;8.110;2023-06-14T00:57:34;8.90;99.90
21772;DHT22;11047;47.904;8.110;2023-06-14T01:00:04;8.80;99.90
21772;DHT22;11047;47.904;8.110;2023-06-14T01:02:36;8.80;99.90
21772;DHT22;11047;47.904;8.110;2023-06-14T01:05:04;8.70;99.90
21772;DHT22;11047;47.904;8.110;2023-06-14T01:07:40;8.70;99.90
21772;DHT22;11047;47.904;8.110;2023-06-14T01:10:19;8.70;99.90
21772;DHT22;11047;47.904;8.110;2023-06-14T01:12:50;8.70;99.90
21772;DHT22;11047;47.904;8.110;2023-06-14T01:15:21;8.60;99.90
21772;DHT22;11047;47.904;8.110;2023-06-14T01:17:49;8.60;99.90
21772;DHT22;11047;47.904;8.110;2023-06-14T01:20:17;8.40;99.90
21772;DHT22;11047;47.904;8.110;2023-06-14T01:22:50;8.40;99.90
21772;DHT22;11047;47.904;8.110;2023-06-14T01:25:18;8.40;99.90
21772;DHT22;11047;47.904;8.110;2023-06-14T01:27:47;8.40;99.90
21772;DHT22;11047;47.904;8.110;2023-06-14T01:30:15;8.10;99.90
21772;DHT22;11047;47.904;8.110;2023-06-14T01:32:42;8.20;99.90
21772;DHT22;11047;47.904;8.110;2023-06-14T01:35:10;8.00;99.90
21772;DHT22;11047;47.904;8.110;2023-06-14T01:37:37;8.00;99.90
21772;DHT22;11047;47.904;8.110;2023-06-14T01:40:07;8.10;99.90
21772;DHT22;11047;47.904;8.110;2023-06-14T01:42:37;8.00;99.90
21772;DHT22;11047;47.904;8.110;2023-06-14T01:45:06;7.90;99.90
21772;DHT22;11047;47.904;8.110;2023-06-14T01:47:34;8.00;99.90
21772;DHT22;11047;47.904;8.110;2023-06-14T01:50:01;8.00;99.90
21772;DHT22;11047;47.904;8.110;2023-06-14T01:52:28;8.00;99.90
21772;DHT22;11047;47.904;8.110;2023-06-14T01:54:55;8.00;99.90
21772;DHT22;11047;47.904;8.110;2023-06-14T01:57:25;7.90;99.90
21772;DHT22;11047;47.904;8.110;2023-06-14T01:59:52;7.80;99.90
21772;DHT22;11047;47.904;8.110;2023-06-14T02:02:20;7.80;99.90
21772;DHT22;11047;47.904;8.110;2023-06-14T02:04:47;8.00;99.90
21772;DHT22;11047;47.904;8.110;2023-06-14T02:07:14;7.80;99.90
21772;DHT22;11047;47.904;8.110;2023-06-14T02:09:41;8.00;99.90
21772;DHT22;11047;47.904;8.110;2023-06-14T02:12:08;8.00;99.90
21772;DHT22;11047;47.904;8.110;2023-06-14T02:14:37;7.80;99.90
21772;DHT22;11047;47.904;8.110;2023-06-14T02:17:05;7.70;99.90
21772;DHT22;11047;47.904;8.110;2023-06-14T02:19:32;7.70;99.90
21772;DHT22;11047;47.904;8.110;2023-06-14T02:21:59;7.60;99.90
21772;DHT22;11047;47.904;8.110;2023-06-14T02:24:26;7.70;99.90
21772;DHT22;11047;47.904;8.110;2023-06-14T02:26:53;7.60;99.90
21772;DHT22;11047;47.904;8.110;2023-06-14T02:29:20;7.60;99.90
21772;DHT22;11047;47.904;8.110;2023-06-14T02:31:49;7.50;99.90
21772;DHT22;11047;47.904;8.110;2023-06-14T02:34:16;7.50;99.90
21772;DHT22;11047;47.904;8.110;2023-06-14T02:36:43;7.40;99.90
21772;DHT22;11047;47.904;8.110;2023-06-14T02:39:10;7.30;99.90
21772;DHT22;11047;47.904;8.110;2023-06-14T02:41:37;7.50;99.90
21772;DHT22;11047;47.904;8.110;2023-06-14T02:44:05;7.30;99.90
21772;DHT22;11047;47.904;8.110;2023-06-14T02:46:32;7.30;99.90
21772;DHT22;11047;47.904;8.110;2023-06-14T02:49:00;7.20;99.90
21772;DHT22;11047;47.904;8.110;2023-06-14T02:51:27;7.30;99.90
21772;DHT22;11047;47.904;8.110;2023-06-14T02:53:54;7.20;99.90
21772;DHT22;11047;47.904;8.110;2023-06-14T02:56:21;7.20;99.90
21772;DHT22;11047;47.904;8.110;2023-06-14T02:58:48;7.10;99.90
21772;DHT22;11047;47.904;8.110;2023-06-14T03:01:16;7.10;99.90
21772;DHT22;11047;47.904;8.110;2023-06-14T03:03:43;7.10;99.90
21772;DHT22;11047;47.904;8.110;2023-06-14T03:06:11;7.00;99.90
21772;DHT22;11047;47.904;8.110;2023-06-14T03:08:39;6.90;99.90
21772;DHT22;11047;47.904;8.110;2023-06-14T03:11:07;6.90;99.90
21772;DHT22;11047;47.904;8.110;2023-06-14T03:13:34;6.90;99.90
21772;DHT22;11047;47.904;8.110;2023-06-14T03:16:03;6.90;99.90
21772;DHT22;11047;47.904;8.110;2023-06-14T03:18:30;6.60;99.90
21772;DHT22;11047;47.904;8.110;2023-06-14T03:21:00;6.70;99.90
21772;DHT22;11047;47.904;8.110;2023-06-14T03:23:29;6.70;99.90
21772;DHT22;11047;47.904;8.110;2023-06-14T03:25:56;6.70;99.90
21772;DHT22;11047;47.904;8.110;2023-06-14T03:28:23;6.60;99.90
21772;DHT22;11047;47.904;8.110;2023-06-14T03:30:51;6.70;99.90
21772;DHT22;11047;47.904;8.110;2023-06-14T03:33:18;6.60;99.90
21772;DHT22;11047;47.904;8.110;2023-06-14T03:35:45;6.60;99.90
21772;DHT22;11047;47.904;8.110;2023-06-14T03:38:12;6.50;99.90
21772;DHT22;11047;47.904;8.110;2023-06-14T03:40:40;6.60;99.90
21772;DHT22;11047;47.904;8.110;2023-06-14T03:43:07;6.60;99.90
21772;DHT22;11047;47.904;8.110;2023-06-14T03:45:34;6.70;99.90
21772;DHT22;11047;47.904;8.110;2023-06-14T03:48:01;6.70;99.90
21772;DHT22;11047;47.904;8.110;2023-06-14T03:50:28;6.70;99.90
21772;DHT22;11047;47.904;8.110;2023-06-14T03:52:55;6.70;99.90
21772;DHT22;11047;47.904;8.110;2023-06-14T03:55:22;6.70;99.90
21772;DHT22;11047;47.904;8.110;2023-06-14T03:57:52;6.60;99.90
21772;DHT22;11047;47.904;8.110;2023-06-14T04:00:19;6.50;99.90
21772;DHT22;11047;47.904;8.110;2023-06-14T04:02:46;6.50;99.90
21772;DHT22;11047;47.904;8.110;2023-06-14T04:05:13;6.60;99.90
21772;DHT22;11047;47.904;8.110;2023-06-14T04:07:42;6.60;99.90
21772;DHT22;11047;47.904;8.110;2023-06-14T04:10:10;6.70;99.90
21772;DHT22;11047;47.904;8.110;2023-06-14T04:12:38;6.80;99.90
21772;DHT22;11047;47.904;8.110;2023-06-14T04:15:07;6.70;99.90
21772;DHT22;11047;47.904;8.110;2023-06-14T04:17:36;6.80;99.90
21772;DHT22;11047;47.904;8.110;2023-06-14T04:20:04;7.00;99.90
21772;DHT22;11047;47.904;8.110;2023-06-14T04:22:33;7.10;99.90
21772;DHT22;11047;47.904;8.110;2023-06-14T04:25:00;7.00;99.90
21772;DHT22;11047;47.904;8.110;2023-06-14T04:27:27;7.00;99.90
21772;DHT22;11047;47.904;8.110;2023-06-14T04:29:56;7.10;99.90
21772;DHT22;11047;47.904;8.110;2023-06-14T04:32:26;7.00;99.90
21772;DHT22;11047;47.904;8.110;2023-06-14T04:34:55;7.00;99.90
21772;DHT22;11047;47.904;8.110;2023-06-14T04:37:23;7.20;99.90
21772;DHT22;11047;47.904;8.110;2023-06-14T04:39:50;7.50;99.90
21772;DHT22;11047;47.904;8.110;2023-06-14T04:42:17;7.30;99.90
21772;DHT22;11047;47.904;8.110;2023-06-14T04:44:46;7.40;99.90
21772;DHT22;11047;47.904;8.110;2023-06-14T04:47:14;7.40;99.90
21772;DHT22;11047;47.904;8.110;2023-06-14T04:49:43;7.40;99.90
21772;DHT22;11047;47.904;8.110;2023-06-14T04:52:10;7.50;99.90
21772;DHT22;11047;47.904;8.110;2023-06-14T04:54:38;7.70;99.90
21772;DHT22;11047;47.904;8.110;2023-06-14T04:57:07;7.80;99.90
21772;DHT22;11047;47.904;8.110;2023-06-14T04:59:39;7.80;99.90
21772;DHT22;11047;47.904;8.110;2023-06-14T05:02:06;7.90;99.90
21772;DHT22;11047;47.904;8.110;2023-06-14T05:04:34;8.00;99.90
21772;DHT22;11047;47.904;8.110;2023-06-14T05:07:06;8.10;99.90
21772;DHT22;11047;47.904;8.110;2023-06-14T05:09:33;8.10;99.90
21772;DHT22;11047;47.904;8.110;2023-06-14T05:12:01;8.20;99.90
21772;DHT22;11047;47.904;8.110;2023-06-14T05:14:28;8.30;99.90
21772;DHT22;11047;47.904;8.110;2023-06-14T05:16:55;8.50;99.90
21772;DHT22;11047;47.904;8.110;2023-06-14T05:19:22;8.60;99.90
21772;DHT22;11047;47.904;8.110;2023-06-14T05:21:49;8.70;99.90
21772;DHT22;11047;47.904;8.110;2023-06-14T05:24:17;8.70;99.90
21772;DHT22;11047;47.904;8.110;2023-06-14T05:26:46;8.80;99.90
21772;DHT22;11047;47.904;8.110;2023-06-14T05:29:13;8.90;99.90
21772;DHT22;11047;47.904;8.110;2023-06-14T05:31:40;9.00;99.90
21772;DHT22;11047;47.904;8.110;2023-06-14T05:34:06;9.00;99.90
21772;DHT22;11047;47.904;8.110;2023-06-14T05:36:33;9.20;99.90
21772;DHT22;11047;47.904;8.110;2023-06-14T05:39:02;9.40;99.90
21772;DHT22;11047;47.904;8.110;2023-06-14T05:41:31;9.40;99.90
21772;DHT22;11047;47.904;8.110;2023-06-14T05:43:58;9.50;99.90
21772;DHT22;11047;47.904;8.110;2023-06-14T05:46:26;9.60;99.90
21772;DHT22;11047;47.904;8.110;2023-06-14T05:48:54;9.70;99.90
21772;DHT22;11047;47.904;8.110;2023-06-14T05:51:22;9.80;99.90
21772;DHT22;11047;47.904;8.110;2023-06-14T05:53:50;10.00;99.90
21772;DHT22;11047;47.904;8.110;2023-06-14T05:56:17;10.10;99.90
21772;DHT22;11047;47.904;8.110;2023-06-14T05:58:46;10.20;99.90
21772;DHT22;11047;47.904;8.110;2023-06-14T06:01:14;10.30;99.90
21772;DHT22;11047;47.904;8.110;2023-06-14T06:03:41;10.40;99.90
21772;DHT22;11047;47.904;8.110;2023-06-14T06:06:11;10.50;99.90
21772;DHT22;11047;47.904;8.110;2023-06-14T06:08:38;10.70;99.90
21772;DHT22;11047;47.904;8.110;2023-06-14T06:11:06;10.90;99.90
21772;DHT22;11047;47.904;8.110;2023-06-14T06:13:33;10.90;99.90
21772;DHT22;11047;47.904;8.110;2023-06-14T06:16:02;11.00;99.90
21772;DHT22;11047;47.904;8.110;2023-06-14T06:18:28;11.10;99.90
21772;DHT22;11047;47.904;8.110;2023-06-14T06:20:55;11.30;99.90
21772;DHT22;11047;47.904;8.110;2023-06-14T06:23:22;11.40;99.90
21772;DHT22;11047;47.904;8.110;2023-06-14T06:25:50;11.50;99.90
21772;DHT22;11047;47.904;8.110;2023-06-14T06:28:17;11.70;99.90
21772;DHT22;11047;47.904;8.110;2023-06-14T06:30:44;11.80;99.90
21772;DHT22;11047;47.904;8.110;2023-06-14T06:33:12;11.80;99.90
21772;DHT22;11047;47.904;8.110;2023-06-14T06:35:39;12.00;99.90
21772;DHT22;11047;47.904;8.110;2023-06-14T06:38:06;12.10;99.90
21772;DHT22;11047;47.904;8.110;2023-06-14T06:40:34;12.30;99.90
21772;DHT22;11047;47.904;8.110;2023-06-14T06:43:02;12.50;99.90
21772;DHT22;11047;47.904;8.110;2023-06-14T06:45:29;12.70;99.90
21772;DHT22;11047;47.904;8.110;2023-06-14T06:47:56;12.90;99.90
21772;DHT22;11047;47.904;8.110;2023-06-14T06:50:24;13.10;99.90
21772;DHT22;11047;47.904;8.110;2023-06-14T06:52:51;13.20;99.90
21772;DHT22;11047;47.904;8.110;2023-06-14T06:55:19;13.50;99.90
21772;DHT22;11047;47.904;8.110;2023-06-14T06:57:45;13.70;99.90
21772;DHT22;11047;47.904;8.110;2023-06-14T07:00:13;13.90;99.90
21772;DHT22;11047;47.904;8.110;2023-06-14T07:02:40;14.10;99.90
21772;DHT22;11047;47.904;8.110;2023-06-14T07:05:07;14.30;99.90
21772;DHT22;11047;47.904;8.110;2023-06-14T07:07:35;14.40;99.90
21772;DHT22;11047;47.904;8.110;2023-06-14T07:10:03;14.60;99.90
21772;DHT22;11047;47.904;8.110;2023-06-14T07:12:30;14.90;99.90
21772;DHT22;11047;47.904;8.110;2023-06-14T07:14:59;15.20;99.90
21772;DHT22;11047;47.904;8.110;2023-06-14T07:17:26;15.50;99.90
21772;DHT22;11047;47.904;8.110;2023-06-14T07:19:53;15.80;99.90
21772;DHT22;11047;47.904;8.110;2023-06-14T07:22:20;16.20;99.90
21772;DHT22;11047;47.904;8.110;2023-06-14T07:24:48;16.50;99.90
21772;DHT22;11047;47.904;8.110;2023-06-14T07:27:15;16.80;99.90
21772;DHT22;11047;47.904;8.110;2023-06-14T07:29:42;17.00;99.90
21772;DHT22;11047;47.904;8.110;2023-06-14T07:32:12;17.30;99.90
21772;DHT22;11047;47.904;8.110;2023-06-14T07:34:39;17.60;99.90
21772;DHT22;11047;47.904;8.110;2023-06-14T07:37:06;18.00;99.90
21772;DHT22;11047;47.904;8.110;2023-06-14T07:39:33;18.40;99.90
21772;DHT22;11047;47.904;8.110;2023-06-14T07:42:01;18.70;99.90
21772;DHT22;11047;47.904;8.110;2023-06-14T07:44:29;18.90;99.90
21772;DHT22;11047;47.904;8.110;2023-06-14T07:46:57;19.20;99.90
21772;DHT22;11047;47.904;8.110;2023-06-14T07:49:25;19.40;99.90
21772;DHT22;11047;47.904;8.110;2023-06-14T07:51:52;19.80;99.90
21772;DHT22;11047;47.904;8.110;2023-06-14T07:54:19;20.10;99.90
21772;DHT22;11047;47.904;8.110;2023-06-14T07:56:50;20.50;99.90
21772;DHT22;11047;47.904;8.110;2023-06-14T07:59:18;20.70;99.90
21772;DHT22;11047;47.904;8.110;2023-06-14T08:01:45;21.00;99.90
21772;DHT22;11047;47.904;8.110;2023-06-14T08:04:12;21.20;99.90
21772;DHT22;11047;47.904;8.110;2023-06-14T08:06:39;21.40;99.90
21772;DHT22;11047;47.904;8.110;2023-06-14T08:09:10;21.60;99.90
21772;DHT22;11047;47.904;8.110;2023-06-14T08:11:37;21.40;99.90
21772;DHT22;11047;47.904;8.110;2023-06-14T08:14:04;21.40;99.90
21772;DHT22;11047;47.904;8.110;2023-06-14T08:16:33;21.60;99.90
21772;DHT22;11047;47.904;8.110;2023-06-14T08:19:00;21.50;99.90
21772;DHT22;11047;47.904;8.110;2023-06-14T08:21:27;21.60;99.90
21772;DHT22;11047;47.904;8.110;2023-06-14T08:23:54;21.60;99.90
21772;DHT22;11047;47.904;8.110;2023-06-14T08:26:21;21.60;99.90
21772;DHT22;11047;47.904;8.110;2023-06-14T08:28:49;21.70;99.90
21772;DHT22;11047;47.904;8.110;2023-06-14T08:31:16;22.10;99.90
21772;DHT22;11047;47.904;8.110;2023-06-14T08:33:44;22.30;99.90
21772;DHT22;11047;47.904;8.110;2023-06-14T08:36:11;22.50;99.90
21772;DHT22;11047;47.904;8.110;2023-06-14T08:38:38;22.70;99.90
21772;DHT22;11047;47.904;8.110;2023-06-14T08:41:05;22.80;99.90
21772;DHT22;11047;47.904;8.110;2023-06-14T08:43:33;22.90;99.90
21772;DHT22;11047;47.904;8.110;2023-06-14T08:46:02;22.70;99.90
21772;DHT22;11047;47.904;8.110;2023-06-14T08:48:30;22.90;99.90
21772;DHT22;11047;47.904;8.110;2023-06-14T08:51:00;23.10;99.90
21772;DHT22;11047;47.904;8.110;2023-06-14T08:56:51;23.60;99.90
21772;DHT22;11047;47.904;8.110;2023-06-14T08:59:19;24.00;99.90
21772;DHT22;11047;47.904;8.110;2023-06-14T09:01:47;24.30;99.90
21772;DHT22;11047;47.904;8.110;2023-06-14T09:04:14;24.60;99.90
21772;DHT22;11047;47.904;8.110;2023-06-14T09:06:44;24.50;99.90
21772;DHT22;11047;47.904;8.110;2023-06-14T09:09:11;24.20;99.90
21772;DHT22;11047;47.904;8.110;2023-06-14T09:11:42;24.40;99.90
21772;DHT22;11047;47.904;8.110;2023-06-14T09:14:09;24.70;99.90
21772;DHT22;11047;47.904;8.110;2023-06-14T09:16:36;24.70;98.00
21772;DHT22;11047;47.904;8.110;2023-06-14T09:19:03;25.10;99.50
21772;DHT22;11047;47.904;8.110;2023-06-14T09:21:33;24.80;99.30
21772;DHT22;11047;47.904;8.110;2023-06-14T09:24:03;24.60;98.50
21772;DHT22;11047;47.904;8.110;2023-06-14T09:26:31;24.70;99.80
21772;DHT22;11047;47.904;8.110;2023-06-14T09:28:58;24.60;98.10
21772;DHT22;11047;47.904;8.110;2023-06-14T09:31:25;24.80;98.10
21772;DHT22;11047;47.904;8.110;2023-06-14T09:33:57;24.70;98.30
21772;DHT22;11047;47.904;8.110;2023-06-14T09:36:25;24.50;97.10
21772;DHT22;11047;47.904;8.110;2023-06-14T09:38:53;25.00;97.50
21772;DHT22;11047;47.904;8.110;2023-06-14T09:41:31;25.40;97.60
21772;DHT22;11047;47.904;8.110;2023-06-14T09:43:58;25.20;97.60
21772;DHT22;11047;47.904;8.110;2023-06-14T09:46:28;25.10;97.20
21772;DHT22;11047;47.904;8.110;2023-06-14T09:48:55;24.90;95.70
21772;DHT22;11047;47.904;8.110;2023-06-14T09:51:22;25.30;97.00
21772;DHT22;11047;47.904;8.110;2023-06-14T09:53:50;25.50;96.10
21772;DHT22;11047;47.904;8.110;2023-06-14T09:56:28;25.60;96.10
21772;DHT22;11047;47.904;8.110;2023-06-14T09:58:56;25.80;97.10
21772;DHT22;11047;47.904;8.110;2023-06-14T10:01:24;25.60;96.60
21772;DHT22;11047;47.904;8.110;2023-06-14T10:03:55;25.50;96.70
21772;DHT22;11047;47.904;8.110;2023-06-14T10:06:25;25.90;96.80
21772;DHT22;11047;47.904;8.110;2023-06-14T10:08:55;26.10;96.40
21772;DHT22;11047;47.904;8.110;2023-06-14T10:11:26;26.70;96.30
21772;DHT22;11047;47.904;8.110;2023-06-14T10:13:53;26.70;94.70
21772;DHT22;11047;47.904;8.110;2023-06-14T10:16:26;26.20;93.50
21772;DHT22;11047;47.904;8.110;2023-06-14T10:19:06;25.50;93.90
21772;DHT22;11047;47.904;8.110;2023-06-14T10:21:43;25.70;93.80
21772;DHT22;11047;47.904;8.110;2023-06-14T10:24:16;26.30;95.20
21772;DHT22;11047;47.904;8.110;2023-06-14T10:26:54;26.40;95.70
21772;DHT22;11047;47.904;8.110;2023-06-14T10:29:21;26.50;95.80
21772;DHT22;11047;47.904;8.110;2023-06-14T10:31:49;26.80;96.30
21772;DHT22;11047;47.904;8.110;2023-06-14T10:34:24;26.60;93.60
21772;DHT22;11047;47.904;8.110;2023-06-14T10:37:05;26.30;93.00
21772;DHT22;11047;47.904;8.110;2023-06-14T10:39:37;26.60;95.20
21772;DHT22;11047;47.904;8.110;2023-06-14T10:42:06;26.30;93.60
21772;DHT22;11047;47.904;8.110;2023-06-14T10:44:44;26.50;94.30
21772;DHT22;11047;47.904;8.110;2023-06-14T10:47:27;26.90;94.40
21772;DHT22;11047;47.904;8.110;2023-06-14T10:49:55;27.10;94.50
21772;DHT22;11047;47.904;8.110;2023-06-14T10:52:27;26.90;94.60
21772;DHT22;11047;47.904;8.110;2023-06-14T10:55:08;26.80;93.60
21772;DHT22;11047;47.904;8.110;2023-06-14T10:57:42;26.70;92.70
21772;DHT22;11047;47.904;8.110;2023-06-14T11:00:11;26.70;93.00
21772;DHT22;11047;47.904;8.110;2023-06-14T11:05:59;26.10;93.80
21772;DHT22;11047;47.904;8.110;2023-06-14T11:08:53;26.80;95.50
21772;DHT22;11047;47.904;8.110;2023-06-14T11:11:24;27.20;94.40
21772;DHT22;11047;47.904;8.110;2023-06-14T11:13:53;26.70;91.90
21772;DHT22;11047;47.904;8.110;2023-06-14T11:16:20;26.50;92.60
21772;DHT22;11047;47.904;8.110;2023-06-14T11:18:47;26.80;92.30
21772;DHT22;11047;47.904;8.110;2023-06-14T11:21:16;26.90;92.40
21772;DHT22;11047;47.904;8.110;2023-06-14T11:23:49;26.60;91.90
21772;DHT22;11047;47.904;8.110;2023-06-14T11:26:23;26.10;92.50
21772;DHT22;11047;47.904;8.110;2023-06-14T11:28:56;26.20;92.50
21772;DHT22;11047;47.904;8.110;2023-06-14T11:31:24;27.00;95.30
21772;DHT22;11047;47.904;8.110;2023-06-14T11:33:51;27.00;93.50
21772;DHT22;11047;47.904;8.110;2023-06-14T11:36:19;27.30;93.40
21772;DHT22;11047;47.904;8.110;2023-06-14T11:38:46;27.40;93.90
21772;DHT22;11047;47.904;8.110;2023-06-14T11:41:13;27.60;92.30
21772;DHT22;11047;47.904;8.110;2023-06-14T11:43:40;27.50;92.60
21772;DHT22;11047;47.904;8.110;2023-06-14T11:46:14;27.80;92.60
21772;DHT22;11047;47.904;8.110;2023-06-14T11:48:43;27.40;91.50
21772;DHT22;11047;47.904;8.110;2023-06-14T11:51:11;27.40;91.30
21772;DHT22;11047;47.904;8.110;2023-06-14T11:53:37;27.20;92.10
21772;DHT22;11047;47.904;8.110;2023-06-14T11:56:05;27.10;91.70
21772;DHT22;11047;47.904;8.110;2023-06-14T11:58:32;26.40;91.40
21772;DHT22;11047;47.904;8.110;2023-06-14T12:00:59;26.90;92.40
21772;DHT22;11047;47.904;8.110;2023-06-14T12:03:28;27.10;91.40
21772;DHT22;11047;47.904;8.110;2023-06-14T12:06:05;26.90;91.70
21772;DHT22;11047;47.904;8.110;2023-06-14T12:08:34;26.40;92.00
21772;DHT22;11047;47.904;8.110;2023-06-14T12:11:06;25.80;92.20
21772;DHT22;11047;47.904;8.110;2023-06-14T12:13:34;25.40;92.10
21772;DHT22;11047;47.904;8.110;2023-06-14T12:16:02;25.80;92.40
21772;DHT22;11047;47.904;8.110;2023-06-14T12:18:35;26.50;93.30
21772;DHT22;11047;47.904;8.110;2023-06-14T12:21:04;26.50;92.20
21772;DHT22;11047;47.904;8.110;2023-06-14T12:23:45;26.40;93.20
21772;DHT22;11047;47.904;8.110;2023-06-14T12:26:13;26.90;92.50
21772;DHT22;11047;47.904;8.110;2023-06-14T12:28:41;27.00;91.40
21772;DHT22;11047;47.904;8.110;2023-06-14T12:31:08;26.90;91.30
21772;DHT22;11047;47.904;8.110;2023-06-14T12:33:37;26.90;92.50
21772;DHT22;11047;47.904;8.110;2023-06-14T12:36:04;27.20;91.70
21772;DHT22;11047;47.904;8.110;2023-06-14T12:38:32;26.70;92.80
21772;DHT22;11047;47.904;8.110;2023-06-14T12:40:59;26.40;93.60
21772;DHT22;11047;47.904;8.110;2023-06-14T12:43:26;25.90;93.20
21772;DHT22;11047;47.904;8.110;2023-06-14T12:45:53;25.30;93.70
21772;DHT22;11047;47.904;8.110;2023-06-14T12:48:20;24.80;93.60
21772;DHT22;11047;47.904;8.110;2023-06-14T12:50:49;24.40;92.90
21772;DHT22;11047;47.904;8.110;2023-06-14T12:53:16;24.40;92.90
21772;DHT22;11047;47.904;8.110;2023-06-14T12:55:43;24.60;95.50
21772;DHT22;11047;47.904;8.110;2023-06-14T12:58:09;25.20;95.30
21772;DHT22;11047;47.904;8.110;2023-06-14T13:00:38;25.60;95.20
21772;DHT22;11047;47.904;8.110;2023-06-14T13:03:05;26.10;93.60
21772;DHT22;11047;47.904;8.110;2023-06-14T13:05:32;26.60;92.00
21772;DHT22;11047;47.904;8.110;2023-06-14T13:08:00;26.30;92.30
21772;DHT22;11047;47.904;8.110;2023-06-14T13:10:27;25.70;92.90
21772;DHT22;11047;47.904;8.110;2023-06-14T13:12:54;25.20;95.80
21772;DHT22;11047;47.904;8.110;2023-06-14T13:15:23;24.80;94.40
21772;DHT22;11047;47.904;8.110;2023-06-14T13:17:50;24.40;93.20
21772;DHT22;11047;47.904;8.110;2023-06-14T13:20:17;24.60;94.90
21772;DHT22;11047;47.904;8.110;2023-06-14T13:22:44;24.60;94.10
21772;DHT22;11047;47.904;8.110;2023-06-14T13:25:12;24.40;93.90
21772;DHT22;11047;47.904;8.110;2023-06-14T13:27:39;24.70;93.60
21772;DHT22;11047;47.904;8.110;2023-06-14T13:30:07;25.40;93.30
21772;DHT22;11047;47.904;8.110;2023-06-14T13:32:35;25.40;93.40
21772;DHT22;11047;47.904;8.110;2023-06-14T13:35:02;25.80;92.40
21772;DHT22;11047;47.904;8.110;2023-06-14T13:37:29;25.90;92.60
21772;DHT22;11047;47.904;8.110;2023-06-14T13:39:57;26.20;92.90
21772;DHT22;11047;47.904;8.110;2023-06-14T13:42:25;26.30;94.60
21772;DHT22;11047;47.904;8.110;2023-06-14T13:44:53;26.10;92.40
21772;DHT22;11047;47.904;8.110;2023-06-14T13:47:20;25.80;92.80
21772;DHT22;11047;47.904;8.110;2023-06-14T13:49:53;25.40;94.00
21772;DHT22;11047;47.904;8.110;2023-06-14T13:52:23;25.10;94.50
21772;DHT22;11047;47.904;8.110;2023-06-14T13:54:50;24.70;93.70
21772;DHT22;11047;47.904;8.110;2023-06-14T13:57:41;24.20;93.70
21772;DHT22;11047;47.904;8.110;2023-06-14T14:00:09;24.00;94.40
21772;DHT22;11047;47.904;8.110;2023-06-14T14:02:36;23.90;94.50
21772;DHT22;11047;47.904;8.110;2023-06-14T14:05:04;24.30;93.80
21772;DHT22;11047;47.904;8.110;2023-06-14T14:07:35;25.00;94.10
21772;DHT22;11047;47.904;8.110;2023-06-14T14:10:04;25.40;94.90
21772;DHT22;11047;47.904;8.110;2023-06-14T14:12:31;25.80;93.10
21772;DHT22;11047;47.904;8.110;2023-06-14T14:15:06;26.00;94.00
21772;DHT22;11047;47.904;8.110;2023-06-14T14:17:46;25.70;93.50
21772;DHT22;11047;47.904;8.110;2023-06-14T14:20:13;25.70;92.70
21772;DHT22;11047;47.904;8.110;2023-06-14T14:22:41;25.70;92.90
21772;DHT22;11047;47.904;8.110;2023-06-14T14:25:08;25.50;95.80
21772;DHT22;11047;47.904;8.110;2023-06-14T14:27:36;25.20;95.00
21772;DHT22;11047;47.904;8.110;2023-06-14T14:30:13;24.80;93.70
21772;DHT22;11047;47.904;8.110;2023-06-14T14:32:42;24.60;93.50
21772;DHT22;11047;47.904;8.110;2023-06-14T14:35:09;24.40;94.40
21772;DHT22;11047;47.904;8.110;2023-06-14T14:37:37;24.40;94.60
21772;DHT22;11047;47.904;8.110;2023-06-14T14:40:05;24.30;93.70
21772;DHT22;11047;47.904;8.110;2023-06-14T14:42:34;24.10;95.40
21772;DHT22;11047;47.904;8.110;2023-06-14T14:45:01;24.10;94.10
21772;DHT22;11047;47.904;8.110;2023-06-14T14:47:30;24.20;95.10
21772;DHT22;11047;47.904;8.110;2023-06-14T14:49:56;24.40;96.20
21772;DHT22;11047;47.904;8.110;2023-06-14T14:52:23;24.40;96.60
21772;DHT22;11047;47.904;8.110;2023-06-14T14:54:52;24.20;95.00
21772;DHT22;11047;47.904;8.110;2023-06-14T14:57:19;24.00;95.20
21772;DHT22;11047;47.904;8.110;2023-06-14T14:59:46;24.00;93.80
21772;DHT22;11047;47.904;8.110;2023-06-14T15:02:13;24.40;94.50
21772;DHT22;11047;47.904;8.110;2023-06-14T15:04:41;24.60;93.50
21772;DHT22;11047;47.904;8.110;2023-06-14T15:07:08;24.90;95.40
21772;DHT22;11047;47.904;8.110;2023-06-14T15:09:35;25.00;96.20
21772;DHT22;11047;47.904;8.110;2023-06-14T15:12:02;24.80;95.50
21772;DHT22;11047;47.904;8.110;2023-06-14T15:14:30;25.10;96.40
21772;DHT22;11047;47.904;8.110;2023-06-14T15:16:58;25.10;96.80
21772;DHT22;11047;47.904;8.110;2023-06-14T15:19:27;24.50;96.90
21772;DHT22;11047;47.904;8.110;2023-06-14T15:21:55;23.80;95.90
21772;DHT22;11047;47.904;8.110;2023-06-14T15:24:24;23.90;95.60
21772;DHT22;11047;47.904;8.110;2023-06-14T15:26:51;24.10;96.10
21772;DHT22;11047;47.904;8.110;2023-06-14T15:29:18;24.30;95.70
21772;DHT22;11047;47.904;8.110;2023-06-14T15:31:45;24.20;95.90
21772;DHT22;11047;47.904;8.110;2023-06-14T15:34:13;24.00;96.40
21772;DHT22;11047;47.904;8.110;2023-06-14T15:36:40;23.90;96.80
21772;DHT22;11047;47.904;8.110;2023-06-14T15:39:08;23.60;96.10
21772;DHT22;11047;47.904;8.110;2023-06-14T15:41:35;23.70;96.10
21772;DHT22;11047;47.904;8.110;2023-06-14T15:44:02;24.00;96.20
21772;DHT22;11047;47.904;8.110;2023-06-14T15:46:29;24.10;97.10
21772;DHT22;11047;47.904;8.110;2023-06-14T15:48:57;23.80;96.70
21772;DHT22;11047;47.904;8.110;2023-06-14T15:51:24;23.70;95.70